createdAt,value
2019-02-07T00:02:10.849Z,-4.47
2019-02-07T00:05:06.072Z,-4.45
2019-02-07T00:08:02.119Z,-4.38
2019-02-07T00:10:58.878Z,-4.44
2019-02-07T00:13:55.585Z,-4.47
2019-02-07T00:16:51.867Z,-4.52
2019-02-07T00:19:48.594Z,-4.47
2019-02-07T00:22:45.042Z,-4.41
2019-02-07T00:25:40.557Z,-4.46
2019-02-07T00:28:37.250Z,-4.49
2019-02-07T00:31:33.209Z,-4.46
2019-02-07T00:34:29.699Z,-4.49
2019-02-07T00:37:27.632Z,-4.43
2019-02-07T00:40:25.035Z,-4.40
2019-02-07T00:43:22.597Z,-4.37
2019-02-07T00:46:18.130Z,-4.38
2019-02-07T00:49:14.609Z,-4.45
2019-02-07T00:52:11.048Z,-4.62
2019-02-07T00:55:08.565Z,-4.56
2019-02-07T00:58:04.479Z,-4.56
2019-02-07T01:01:01.787Z,-4.53
2019-02-07T01:03:58.487Z,-4.48
2019-02-07T01:06:54.259Z,-4.43
2019-02-07T01:09:50.737Z,-4.39
2019-02-07T01:12:47.385Z,-4.38
2019-02-07T01:15:44.403Z,-4.35
2019-02-07T01:18:40.174Z,-4.32
2019-02-07T01:21:36.639Z,-4.28
2019-02-07T01:24:33.627Z,-4.35
2019-02-07T01:27:29.116Z,-4.35
2019-02-07T01:30:33.490Z,-4.34
2019-02-07T01:33:29.032Z,-4.29
2019-02-07T01:36:25.872Z,-4.28
2019-02-07T01:39:22.889Z,-4.35
2019-02-07T01:42:18.635Z,-4.32
2019-02-07T01:45:13.633Z,-4.28
2019-02-07T01:48:10.328Z,-4.41
2019-02-07T01:51:06.748Z,-4.42
2019-02-07T01:54:01.699Z,-4.40
2019-02-07T01:56:59.459Z,-4.39
2019-02-07T01:59:55.173Z,-4.41
2019-02-07T02:02:52.688Z,-4.40
2019-02-07T02:05:49.433Z,-4.37
2019-02-07T02:08:46.021Z,-4.32
2019-02-07T02:11:40.632Z,-4.32
2019-02-07T02:14:37.383Z,-4.30
2019-02-07T02:17:31.875Z,-4.32
2019-02-07T02:20:28.423Z,-4.39
2019-02-07T02:23:25.134Z,-4.41
2019-02-07T02:26:21.856Z,-4.51
2019-02-07T02:29:18.190Z,-4.55
2019-02-07T02:32:14.886Z,-4.66
2019-02-07T02:35:11.391Z,-4.62
2019-02-07T02:38:06.111Z,-4.61
2019-02-07T02:41:02.889Z,-4.64
2019-02-07T02:43:59.390Z,-4.66
2019-02-07T02:46:56.121Z,-4.70
2019-02-07T02:49:52.599Z,-4.67
2019-02-07T02:52:49.083Z,-4.63
2019-02-07T02:55:48.876Z,-4.64
2019-02-07T02:58:44.486Z,-4.79
2019-02-07T03:02:02.114Z,-4.93
2019-02-07T03:05:14.253Z,-4.91
2019-02-07T03:08:22.094Z,-5.08
2019-02-07T03:11:39.388Z,-5.18
2019-02-07T03:14:53.119Z,-5.13
2019-02-07T03:18:14.352Z,-5.08
2019-02-07T03:21:31.763Z,-5.04
2019-02-07T03:24:54.677Z,-5.04
2019-02-07T03:28:05.986Z,-5.03
2019-02-07T03:31:19.337Z,-5.06
2019-02-07T03:34:31.053Z,-5.06
2019-02-07T03:37:38.006Z,-5.04
2019-02-07T03:40:44.890Z,-5.22
2019-02-07T03:44:02.485Z,-5.17
2019-02-07T03:47:15.918Z,-5.16
2019-02-07T03:50:30.015Z,-5.20
2019-02-07T03:53:41.663Z,-5.21
2019-02-07T03:56:55.811Z,-5.16
2019-02-07T04:00:04.602Z,-5.19
2019-02-07T04:03:21.598Z,-5.19
2019-02-07T04:06:34.744Z,-5.14
2019-02-07T04:09:59.607Z,-5.16
2019-02-07T04:13:09.980Z,-5.27
2019-02-07T04:16:19.786Z,-5.31
2019-02-07T04:19:28.947Z,-5.46
2019-02-07T04:22:54.148Z,-5.46
2019-02-07T04:26:13.920Z,-5.45
2019-02-07T04:29:25.805Z,-5.59
2019-02-07T04:32:36.520Z,-5.52
2019-02-07T04:35:48.340Z,-5.47
2019-02-07T04:38:57.082Z,-5.56
2019-02-07T04:42:10.156Z,-5.46
2019-02-07T04:45:26.127Z,-5.33
2019-02-07T04:48:47.814Z,-5.23
2019-02-07T04:51:57.136Z,-5.18
2019-02-07T04:55:21.614Z,-5.20
2019-02-07T04:58:37.680Z,-5.14
2019-02-07T05:01:58.874Z,-5.10
2019-02-07T05:05:09.347Z,-5.11
2019-02-07T05:08:16.325Z,-5.10
2019-02-07T05:11:26.784Z,-5.09
2019-02-07T05:14:34.399Z,-5.09
2019-02-07T05:17:43.290Z,-5.16
2019-02-07T05:21:01.481Z,-5.17
2019-02-07T05:24:20.865Z,-5.14
2019-02-07T05:27:25.629Z,-5.15
2019-02-07T05:30:40.251Z,-5.15
2019-02-07T05:34:04.163Z,-5.10
2019-02-07T05:37:21.577Z,-5.11
2019-02-07T05:40:40.287Z,-5.13
2019-02-07T05:43:49.137Z,-5.08
2019-02-07T05:46:56.671Z,-5.04
2019-02-07T05:50:05.343Z,-5.07
2019-02-07T05:53:14.265Z,-5.07
2019-02-07T05:56:34.760Z,-5.11
2019-02-07T05:59:58.137Z,-5.10
2019-02-07T06:03:24.617Z,-5.07
2019-02-07T06:06:37.752Z,-5.06
2019-02-07T06:09:48.990Z,-5.10
2019-02-07T06:13:03.042Z,-5.09
2019-02-07T06:16:12.983Z,-5.09
2019-02-07T06:19:26.631Z,-5.07
2019-02-07T06:22:36.972Z,-5.06
2019-02-07T06:25:56.008Z,-5.05
2019-02-07T06:29:09.520Z,-5.15
2019-02-07T06:32:16.072Z,-5.11
2019-02-07T06:35:38.342Z,-5.06
2019-02-07T06:38:45.610Z,-4.99
2019-02-07T06:42:04.516Z,-4.97
2019-02-07T06:45:19.737Z,-4.97
2019-02-07T06:48:35.181Z,-4.98
2019-02-07T06:51:49.487Z,-5.01
2019-02-07T06:55:14.259Z,-5.02
2019-02-07T06:58:34.271Z,-4.99
2019-02-07T07:01:54.803Z,-4.95
2019-02-07T07:05:04.967Z,-4.88
2019-02-07T07:08:18.837Z,-4.86
2019-02-07T07:11:39.079Z,-4.81
2019-02-07T07:14:44.893Z,-4.85
2019-02-07T07:17:56.525Z,-4.83
2019-02-07T07:21:19.128Z,-4.84
2019-02-07T07:24:27.809Z,-4.89
2019-02-07T07:27:42.057Z,-4.85
2019-02-07T07:31:04.157Z,-4.79
2019-02-07T07:34:20.655Z,-4.72
2019-02-07T07:37:33.073Z,-4.67
2019-02-07T07:40:42.158Z,-4.68
2019-02-07T07:43:52.741Z,-4.66
2019-02-07T07:47:05.796Z,-4.64
2019-02-07T07:50:21.793Z,-4.59
2019-02-07T07:53:30.919Z,-4.54
2019-02-07T07:56:39.786Z,-4.49
2019-02-07T07:59:53.815Z,-4.44
2019-02-07T08:03:02.244Z,-4.38
2019-02-07T08:06:27.501Z,-4.45
2019-02-07T08:09:44.952Z,-4.58
2019-02-07T08:12:54.351Z,-4.56
2019-02-07T08:16:02.084Z,-4.57
2019-02-07T08:19:12.435Z,-4.51
2019-02-07T08:22:16.331Z,-4.52
2019-02-07T08:25:30.198Z,-4.64
2019-02-07T08:28:38.089Z,-4.66
2019-02-07T08:31:55.001Z,-4.52
2019-02-07T08:35:03.659Z,-4.42
2019-02-07T08:38:13.432Z,-4.49
2019-02-07T08:41:44.391Z,-4.54
2019-02-07T08:44:55.153Z,-4.43
2019-02-07T08:48:04.002Z,-4.26
2019-02-07T08:51:12.513Z,-4.19
2019-02-07T08:54:20.259Z,-4.19
2019-02-07T08:57:32.556Z,-4.20
2019-02-07T09:00:43.110Z,-4.11
2019-02-07T09:03:59.075Z,-4.08
2019-02-07T09:07:14.690Z,-4.03
2019-02-07T09:10:23.696Z,-3.90
2019-02-07T09:13:40.013Z,-3.89
2019-02-07T09:16:54.822Z,-3.80
2019-02-07T09:20:01.688Z,-3.80
2019-02-07T09:23:15.494Z,-3.73
2019-02-07T09:26:38.621Z,-3.69
2019-02-07T09:29:46.615Z,-3.66
2019-02-07T09:33:00.336Z,-3.58
2019-02-07T09:36:05.822Z,-3.52
2019-02-07T09:39:26.721Z,-3.46
2019-02-07T09:42:49.630Z,-3.65
2019-02-07T09:46:05.168Z,-3.65
2019-02-07T09:49:13.887Z,-3.57
2019-02-07T09:52:22.250Z,-3.57
2019-02-07T09:55:30.115Z,-3.47
2019-02-07T09:58:54.848Z,-3.44
2019-02-07T10:02:11.045Z,-3.40
2019-02-07T10:05:36.640Z,-3.29
2019-02-07T10:08:46.921Z,-3.32
2019-02-07T10:11:55.487Z,-3.29
2019-02-07T10:15:17.997Z,-3.17
2019-02-07T10:18:33.023Z,-3.00
2019-02-07T10:21:35.974Z,-2.83
2019-02-07T10:24:57.572Z,-2.65
2019-02-07T10:28:04.999Z,-2.51
2019-02-07T10:31:15.423Z,-2.41
2019-02-07T10:34:29.446Z,-2.33
2019-02-07T10:37:37.463Z,-2.27
2019-02-07T10:40:48.956Z,-2.14
2019-02-07T10:44:15.634Z,-1.98
2019-02-07T10:47:22.380Z,-1.90
2019-02-07T10:50:37.276Z,-1.86
2019-02-07T10:53:42.819Z,-1.86
2019-02-07T10:56:51.001Z,-1.87
2019-02-07T11:00:13.589Z,-1.87
2019-02-07T11:03:23.954Z,-1.84
2019-02-07T11:06:34.407Z,-1.81
2019-02-07T11:09:47.533Z,-1.80
2019-02-07T11:13:00.646Z,-1.72
2019-02-07T11:16:11.368Z,-1.70
2019-02-07T11:19:21.370Z,-1.66
2019-02-07T11:22:42.658Z,-1.61
2019-02-07T11:25:51.095Z,-1.58
2019-02-07T11:29:00.852Z,-1.57
2019-02-07T11:32:11.335Z,-1.60
2019-02-07T11:35:34.474Z,-1.61
2019-02-07T11:38:45.993Z,-1.65
2019-02-07T11:41:53.799Z,-1.63
2019-02-07T11:44:56.573Z,-1.60
2019-02-07T11:48:05.028Z,-1.59
2019-02-07T11:51:14.909Z,-1.63
2019-02-07T11:54:30.641Z,-1.53
2019-02-07T11:57:39.159Z,-1.41
2019-02-07T12:01:03.823Z,-1.26
2019-02-07T12:04:11.082Z,-1.16
2019-02-07T12:07:25.316Z,-1.07
2019-02-07T12:10:35.263Z,-1.06
2019-02-07T12:13:46.993Z,-1.05
2019-02-07T12:17:05.996Z,-1.02
2019-02-07T12:20:26.562Z,-0.95
2019-02-07T12:23:35.110Z,-0.98
2019-02-07T12:26:42.980Z,-1.01
2019-02-07T12:29:56.754Z,-0.99
2019-02-07T12:33:10.530Z,-0.97
2019-02-07T12:36:15.565Z,-0.93
2019-02-07T12:39:30.421Z,-0.93
2019-02-07T12:42:47.263Z,-0.90
2019-02-07T12:45:57.277Z,-0.83
2019-02-07T12:49:07.136Z,-0.82
2019-02-07T12:52:21.269Z,-0.75
2019-02-07T12:55:35.781Z,-0.71
2019-02-07T12:58:43.274Z,-0.73
2019-02-07T13:01:58.455Z,-0.65
2019-02-07T13:05:14.514Z,-0.65
2019-02-07T13:08:38.382Z,-0.58
2019-02-07T13:11:48.497Z,-0.54
2019-02-07T13:14:58.169Z,-0.43
2019-02-07T13:18:21.997Z,-0.44
2019-02-07T13:21:42.668Z,-0.38
2019-02-07T13:24:49.831Z,-0.33
2019-02-07T13:28:06.651Z,-0.35
2019-02-07T13:31:22.498Z,-0.39
2019-02-07T13:34:41.079Z,-0.40
2019-02-07T13:37:58.386Z,-0.39
2019-02-07T13:41:07.301Z,-0.39
2019-02-07T13:44:15.231Z,-0.43
2019-02-07T13:47:25.828Z,-0.42
2019-02-07T13:50:38.595Z,-0.43
2019-02-07T13:53:48.159Z,-0.52
2019-02-07T13:57:01.278Z,-0.52
2019-02-07T14:00:14.966Z,-0.52
2019-02-07T14:03:35.718Z,-0.49
2019-02-07T14:06:45.312Z,-0.52
2019-02-07T14:09:54.408Z,-0.57
2019-02-07T14:13:19.080Z,-0.61
2019-02-07T14:16:26.828Z,-0.70
2019-02-07T14:19:48.374Z,-0.70
2019-02-07T14:22:57.028Z,-0.70
2019-02-07T14:26:06.019Z,-0.69
2019-02-07T14:29:18.886Z,-0.68
2019-02-07T14:32:35.682Z,-0.65
2019-02-07T14:35:45.947Z,-0.62
2019-02-07T14:39:08.494Z,-0.60
2019-02-07T14:42:24.270Z,-0.67
2019-02-07T14:45:51.359Z,-0.62
2019-02-07T14:48:46.881Z,-0.57
2019-02-07T14:51:42.472Z,-0.58
2019-02-07T14:54:37.958Z,-0.60
2019-02-07T14:57:34.589Z,-0.61
2019-02-07T15:00:34.199Z,-0.63
2019-02-07T15:03:30.925Z,-0.65
2019-02-07T15:06:27.467Z,-0.62
2019-02-07T15:09:30.952Z,-0.62
2019-02-07T15:12:29.687Z,-0.62
2019-02-07T15:15:24.986Z,-0.59
2019-02-07T15:18:21.936Z,-0.61
2019-02-07T15:21:16.907Z,-0.60
2019-02-07T15:24:13.806Z,-0.59
2019-02-07T15:27:09.829Z,-0.62
2019-02-07T15:30:05.541Z,-0.60
2019-02-07T15:33:02.154Z,-0.60
2019-02-07T15:36:00.055Z,-0.60
2019-02-07T15:38:56.792Z,-0.59
2019-02-07T15:41:52.513Z,-0.59
2019-02-07T15:44:49.084Z,-0.60
2019-02-07T15:47:45.550Z,-0.62
2019-02-07T15:50:45.921Z,-0.64
2019-02-07T15:53:43.946Z,-0.65
2019-02-07T15:56:38.959Z,-0.63
2019-02-07T15:59:46.276Z,-0.61
2019-02-07T16:02:54.290Z,-0.65
2019-02-07T16:05:49.850Z,-0.69
2019-02-07T16:08:46.681Z,-0.72
2019-02-07T16:11:47.185Z,-0.68
2019-02-07T16:14:44.505Z,-0.66
2019-02-07T16:17:39.216Z,-0.64
2019-02-07T16:20:48.457Z,-0.66
2019-02-07T16:23:35.405Z,-0.66
2019-02-07T16:26:31.140Z,-0.64
2019-02-07T16:29:27.474Z,-0.62
2019-02-07T16:32:22.912Z,-0.63
2019-02-07T16:35:20.190Z,-0.61
2019-02-07T16:38:15.912Z,-0.60
2019-02-07T16:41:13.718Z,-0.61
2019-02-07T16:44:09.930Z,-0.59
2019-02-07T16:47:06.626Z,-0.57
2019-02-07T16:50:03.833Z,-0.57
2019-02-07T16:53:01.514Z,-0.56
2019-02-07T16:56:02.230Z,-0.55
2019-02-07T16:59:08.050Z,-0.53
2019-02-07T17:02:04.817Z,-0.52
2019-02-07T17:05:01.663Z,-0.47
2019-02-07T17:07:58.220Z,-0.46
2019-02-07T17:10:54.980Z,-0.44
2019-02-07T17:13:50.740Z,-0.42
2019-02-07T17:16:47.860Z,-0.44
2019-02-07T17:19:43.758Z,-0.45
2019-02-07T17:22:40.533Z,-0.43
2019-02-07T17:25:37.023Z,-0.43
2019-02-07T17:28:33.707Z,-0.43
2019-02-07T17:31:29.266Z,-0.41
2019-02-07T17:34:26.027Z,-0.40
2019-02-07T17:37:22.750Z,-0.38
2019-02-07T17:40:18.671Z,-0.38
2019-02-07T17:43:19.747Z,-0.34
2019-02-07T17:46:15.003Z,-0.33
2019-02-07T17:49:10.954Z,-0.29
2019-02-07T17:52:07.534Z,-0.28
2019-02-07T17:55:05.329Z,-0.28
2019-02-07T17:58:02.221Z,-0.26
2019-02-07T18:01:10.125Z,-0.24
2019-02-07T18:04:06.878Z,-0.22
2019-02-07T18:07:02.685Z,-0.21
2019-02-07T18:10:00.462Z,-0.18
2019-02-07T18:12:57.026Z,-0.16
2019-02-07T18:15:57.283Z,-0.14
2019-02-07T18:18:52.234Z,-0.15
2019-02-07T18:21:47.840Z,-0.14
2019-02-07T18:24:44.461Z,-0.15
2019-02-07T18:27:41.972Z,-0.13
2019-02-07T18:30:37.841Z,-0.14
2019-02-07T18:33:35.372Z,-0.13
2019-02-07T18:36:31.939Z,-0.11
2019-02-07T18:39:30.805Z,-0.12
2019-02-07T18:42:25.931Z,-0.10
2019-02-07T18:45:22.658Z,-0.09
2019-02-07T18:48:18.452Z,-0.08
2019-02-07T18:51:14.450Z,-0.07
2019-02-07T18:54:10.347Z,-0.06
2019-02-07T18:57:06.770Z,-0.03
2019-02-07T19:00:04.492Z,-0.01
2019-02-07T19:03:00.230Z,0.00
2019-02-07T19:05:58.985Z,0.02
2019-02-07T19:08:54.488Z,0.04
2019-02-07T19:11:52.021Z,0.05
2019-02-07T19:14:47.946Z,0.07
2019-02-07T19:17:44.818Z,0.08
2019-02-07T19:20:41.318Z,0.09
2019-02-07T19:23:43.132Z,0.08
2019-02-07T19:26:40.693Z,0.09
2019-02-07T19:29:36.188Z,0.09
2019-02-07T19:32:33.143Z,0.09
2019-02-07T19:35:29.312Z,0.12
2019-02-07T19:38:26.112Z,0.13
2019-02-07T19:41:22.959Z,0.12
2019-02-07T19:44:18.567Z,0.14
2019-02-07T19:47:15.036Z,0.15
2019-02-07T19:50:11.582Z,0.15
2019-02-07T19:53:09.659Z,0.17
2019-02-07T19:56:05.081Z,0.18
2019-02-07T19:59:01.351Z,0.19
2019-02-07T20:01:58.226Z,0.21
2019-02-07T20:04:54.135Z,0.23
2019-02-07T20:07:51.807Z,0.24
2019-02-07T20:10:47.377Z,0.22
2019-02-07T20:13:44.260Z,0.21
2019-02-07T20:16:40.581Z,0.20
2019-02-07T20:19:36.456Z,0.21
2019-02-07T20:22:33.077Z,0.24
2019-02-07T20:25:28.737Z,0.26
2019-02-07T20:28:25.577Z,0.26
2019-02-07T20:31:21.138Z,0.25
2019-02-07T20:34:17.679Z,0.24
2019-02-07T20:37:13.361Z,0.23
2019-02-07T20:40:10.189Z,0.21
2019-02-07T20:43:05.787Z,0.21
2019-02-07T20:46:02.616Z,0.18
2019-02-07T20:48:59.310Z,0.21
2019-02-07T20:51:55.109Z,0.21
2019-02-07T20:54:53.651Z,0.21
2019-02-07T20:57:51.211Z,0.21
2019-02-07T21:00:50.416Z,0.20
2019-02-07T21:03:46.036Z,0.21
2019-02-07T21:06:42.214Z,0.21
2019-02-07T21:09:39.104Z,0.22
2019-02-07T21:12:35.925Z,0.23
2019-02-07T21:15:33.796Z,0.22
2019-02-07T21:18:30.182Z,0.23
2019-02-07T21:21:26.994Z,0.28
2019-02-07T21:24:22.662Z,0.30
2019-02-07T21:27:20.168Z,0.32
2019-02-07T21:30:16.647Z,0.32
2019-02-07T21:33:11.654Z,0.33
2019-02-07T21:36:08.420Z,0.38
2019-02-07T21:39:04.036Z,0.41
2019-02-07T21:42:01.662Z,0.44
2019-02-07T21:44:57.427Z,0.47
2019-02-07T21:47:53.609Z,0.47
2019-02-07T21:50:49.111Z,0.51
2019-02-07T21:53:45.665Z,0.49
2019-02-07T21:56:43.245Z,0.45
2019-02-07T21:59:39.903Z,0.45
2019-02-07T22:02:36.649Z,0.44
2019-02-07T22:05:32.409Z,0.43
2019-02-07T22:08:29.921Z,0.40
2019-02-07T22:11:26.503Z,0.41
2019-02-07T22:14:24.130Z,0.41
2019-02-07T22:17:20.796Z,0.43
2019-02-07T22:20:16.360Z,0.42
2019-02-07T22:23:12.527Z,0.40
2019-02-07T22:26:08.025Z,0.40
2019-02-07T22:29:05.873Z,0.39
2019-02-07T22:32:01.529Z,0.36
2019-02-07T22:34:57.922Z,0.35
2019-02-07T22:37:53.242Z,0.34
2019-02-07T22:40:49.752Z,0.34
2019-02-07T22:43:46.010Z,0.34
2019-02-07T22:46:47.074Z,0.34
2019-02-07T22:49:44.290Z,0.36
2019-02-07T22:52:39.778Z,0.39
2019-02-07T22:55:36.538Z,0.43
2019-02-07T22:58:34.100Z,0.46
2019-02-07T23:02:02.506Z,0.47
2019-02-07T23:04:59.111Z,0.48
2019-02-07T23:07:54.490Z,0.48
2019-02-07T23:10:52.000Z,0.51
2019-02-07T23:13:47.362Z,0.54
2019-02-07T23:16:43.395Z,0.58
2019-02-07T23:19:39.922Z,0.62
2019-02-07T23:22:37.169Z,0.66
2019-02-07T23:25:32.892Z,0.69
2019-02-07T23:28:29.562Z,0.72
2019-02-07T23:31:26.121Z,0.74
2019-02-07T23:34:26.426Z,0.77
2019-02-07T23:37:27.010Z,0.81
2019-02-07T23:40:22.389Z,0.82
2019-02-07T23:43:19.854Z,0.83
2019-02-07T23:46:15.410Z,0.82
2019-02-07T23:49:12.956Z,0.80
2019-02-07T23:52:08.392Z,0.82
2019-02-07T23:55:05.082Z,0.84
2019-02-07T23:58:01.604Z,0.83
